Time;durP1;ratioP1;P1;durP2;ratioP2;P2;SDS_P1;SDS_P2;PMS_P1;PMS_P2;Temp;Humidity;BMP_temperature;BMP_pressure;BME280_temperature;BME280_humidity;BME280_pressure;Samples;Min_cycle;Max_cycle;Signal;HPM_P1;HPM_P2
2023/03/11 00:13:23;;;;;;;12.23;2.50;;;0.30;99.90;;;;;;6144831;23;20029;-87
2023/03/11 00:15:51;;;;;;;9.77;2.20;;;1.30;99.90;;;;;;6139740;23;20018;-87
2023/03/11 00:18:25;;;;;;;8.30;2.10;;;-0.40;99.90;;;;;;6126069;23;20029;-87
2023/03/11 00:20:54;;;;;;;8.03;2.40;;;-0.90;99.90;;;;;;6126258;23;20018;-87
2023/03/11 00:23:24;;;;;;;8.10;2.40;;;-0.80;99.90;;;;;;6124907;23;20018;-88
2023/03/11 00:31:49;;;;;;;9.87;2.50;;;-0.60;99.90;;;;;;6189813;23;20029;-86
2023/03/11 00:34:45;;;;;;;8.47;2.40;;;0.30;99.90;;;;;;6168820;23;20028;-86
2023/03/11 00:37:20;;;;;;;10.30;2.63;;;-1.20;99.90;;;;;;6158736;23;20017;-86
2023/03/11 00:39:52;;;;;;;9.93;2.73;;;-0.90;99.90;;;;;;6185307;23;20442;-86
2023/03/11 00:42:20;;;;;;;9.83;2.27;;;0.20;99.90;;;;;;6159001;23;20362;-87
2023/03/11 00:44:58;;;;;;;9.73;2.43;;;-0.80;99.90;;;;;;6184827;23;20020;-88
2023/03/11 00:47:42;;;;;;;12.13;3.13;;;-1.00;99.90;;;;;;6159155;23;20615;-85
2023/03/11 00:50:18;;;;;;;12.33;2.60;;;-1.00;99.90;;;;;;6159128;23;20063;-86
2023/03/11 00:52:48;;;;;;;8.50;2.40;;;-0.10;99.90;;;;;;6185107;23;20028;-86
2023/03/11 00:55:29;;;;;;;9.73;2.87;;;-0.80;99.90;;;;;;6159590;23;20115;-86
2023/03/11 00:57:59;;;;;;;10.67;2.57;;;-0.80;99.90;;;;;;6184945;23;20013;-86
2023/03/11 01:00:26;;;;;;;12.27;2.93;;;-0.70;99.90;;;;;;6158894;23;20044;-87
2023/03/11 01:02:53;;;;;;;10.13;2.40;;;-0.60;99.90;;;;;;6185694;23;20013;-87
2023/03/11 01:05:28;;;;;;;10.57;2.77;;;-0.10;99.90;;;;;;6184650;23;20013;-86
2023/03/11 01:07:53;;;;;;;8.57;2.40;;;-0.50;99.90;;;;;;6185583;23;20092;-85
2023/03/11 01:10:33;;;;;;;10.67;2.67;;;-0.60;99.90;;;;;;6159673;23;20357;-87
2023/03/11 01:13:14;;;;;;;9.87;2.63;;;-0.90;99.90;;;;;;6158827;23;20080;-86
2023/03/11 01:15:42;;;;;;;9.67;2.60;;;1.10;99.90;;;;;;6186799;23;20017;-86
2023/03/11 01:18:20;;;;;;;11.10;2.57;;;-0.90;99.90;;;;;;6160404;23;20013;-87
2023/03/11 01:20:52;;;;;;;9.37;2.70;;;0.40;99.90;;;;;;6160901;23;20021;-86
2023/03/11 01:23:24;;;;;;;9.20;2.43;;;-0.40;99.90;;;;;;6164003;23;20021;-87
2023/03/11 01:26:01;;;;;;;9.73;2.40;;;-1.00;99.90;;;;;;6161177;23;20017;-87
2023/03/11 01:28:30;;;;;;;8.90;2.80;;;-0.80;99.90;;;;;;6187457;23;20349;-87
2023/03/11 01:31:46;;;;;;;14.27;2.50;;;-0.80;99.90;;;;;;6160201;23;20385;-86
2023/03/11 01:34:15;;;;;;;10.27;2.40;;;-0.60;99.90;;;;;;6186721;23;20017;-87
2023/03/11 01:36:41;;;;;;;10.00;2.60;;;-0.90;99.90;;;;;;6186830;23;20013;-86
2023/03/11 01:39:18;;;;;;;13.47;2.60;;;0.00;99.90;;;;;;6159570;23;20063;-87
2023/03/11 01:41:59;;;;;;;10.50;2.50;;;-0.90;99.90;;;;;;6186811;23;20083;-87
2023/03/11 01:44:33;;;;;;;10.17;2.47;;;-0.90;99.90;;;;;;6160360;23;20025;-87
2023/03/11 01:47:08;;;;;;;10.93;2.13;;;0.50;99.90;;;;;;6159612;23;20013;-87
2023/03/11 01:49:40;;;;;;;12.20;2.40;;;-0.60;99.90;;;;;;6187574;23;20064;-87
2023/03/11 01:52:15;;;;;;;10.50;2.30;;;0.70;99.90;;;;;;6187164;23;20013;-87
2023/03/11 01:54:44;;;;;;;8.73;2.10;;;0.40;99.90;;;;;;6159442;23;20013;-87
2023/03/11 01:57:13;;;;;;;9.80;2.10;;;-0.90;99.90;;;;;;6162701;23;20338;-87
2023/03/11 01:59:52;;;;;;;9.37;1.93;;;-0.30;99.90;;;;;;6171260;23;20473;-87
2023/03/11 02:02:56;;;;;;;11.80;2.43;;;-0.40;99.90;;;;;;6191229;23;20151;-87
2023/03/11 02:05:41;;;;;;;10.83;2.50;;;-0.20;99.90;;;;;;6166983;23;20013;-86
2023/03/11 02:08:07;;;;;;;9.83;2.20;;;-0.60;99.90;;;;;;6167281;23;20381;-86
2023/03/11 02:10:51;;;;;;;8.47;1.87;;;-0.80;99.90;;;;;;6160465;23;20024;-86
2023/03/11 02:13:21;;;;;;;7.90;2.10;;;-1.10;99.90;;;;;;6160732;23;20349;-86
2023/03/11 02:15:50;;;;;;;6.97;2.07;;;-1.10;99.90;;;;;;6185773;23;20009;-86
2023/03/11 02:18:31;;;;;;;11.50;2.13;;;-1.60;99.90;;;;;;6160647;23;20027;-85
2023/03/11 02:21:30;;;;;;;9.73;2.23;;;-1.10;99.90;;;;;;6187286;23;20040;-86
2023/03/11 02:24:23;;;;;;;11.43;2.33;;;-0.70;99.90;;;;;;6187169;23;20028;-86
2023/03/11 02:27:19;;;;;;;8.37;2.40;;;-0.80;99.90;;;;;;6160321;23;20057;-86
2023/03/11 02:29:48;;;;;;;11.20;2.43;;;-1.10;99.90;;;;;;6158239;23;20048;-86
2023/03/11 02:32:20;;;;;;;9.17;1.70;;;-1.00;99.90;;;;;;6187438;23;20024;-85
2023/03/11 02:34:48;;;;;;;8.47;2.10;;;-1.20;99.90;;;;;;6186868;23;20024;-85
2023/03/11 02:37:20;;;;;;;10.50;2.07;;;-0.40;99.90;;;;;;6186161;23;20021;-85
2023/03/11 02:39:53;;;;;;;9.10;2.07;;;0.70;99.90;;;;;;6186461;23;20511;-86
2023/03/11 02:42:31;;;;;;;8.52;2.45;;;-1.20;99.90;;;;;;6159838;23;20064;-86
2023/03/11 02:45:02;;;;;;;8.10;1.90;;;-0.10;99.90;;;;;;6160873;23;20430;-86
2023/03/11 02:47:34;;;;;;;10.67;2.00;;;0.30;99.90;;;;;;6159493;23;20020;-85
2023/03/11 02:50:33;;;;;;;10.63;2.10;;;-1.10;99.90;;;;;;6166350;23;20066;-86
2023/03/11 03:00:55;;;;;;;8.63;2.03;;;-0.40;99.90;;;;;;6125535;23;20022;-86
2023/03/11 03:03:35;;;;;;;7.80;2.20;;;-1.50;99.90;;;;;;6091993;23;20093;-86
2023/03/11 03:06:21;;;;;;;8.97;1.90;;;0.20;99.90;;;;;;6069812;23;20065;-86
2023/03/11 03:08:47;;;;;;;7.97;1.77;;;-1.40;99.90;;;;;;6112956;23;20061;-85
2023/03/11 03:11:21;;;;;;;10.60;1.87;;;0.70;99.90;;;;;;6126336;23;20431;-86
2023/03/11 03:13:47;;;;;;;7.83;1.87;;;-0.50;99.90;;;;;;6124763;23;20018;-86
2023/03/11 03:16:13;;;;;;;10.43;2.47;;;-1.50;99.90;;;;;;6125787;23;20101;-85
2023/03/11 03:18:48;;;;;;;10.73;1.90;;;-0.20;99.90;;;;;;6123872;23;20018;-85
2023/03/11 03:21:31;;;;;;;10.43;2.00;;;-1.50;99.90;;;;;;6125527;23;20078;-86
2023/03/11 03:24:00;;;;;;;6.63;1.70;;;-1.90;99.90;;;;;;6127095;23;20022;-85
2023/03/11 03:26:38;;;;;;;9.17;1.93;;;-0.40;99.90;;;;;;6124542;23;20018;-86
2023/03/11 03:29:48;;;;;;;;;;;;;;;;;;;;;
2023/03/11 03:35:23;;;;;;;9.27;1.90;;;-1.60;99.90;;;;;;6131857;23;20477;-85
2023/03/11 03:37:51;;;;;;;9.10;2.17;;;-0.40;99.90;;;;;;6138649;23;20018;-85
2023/03/11 03:40:17;;;;;;;8.23;2.00;;;-0.50;99.90;;;;;;6132789;23;20077;-85
2023/03/11 03:42:46;;;;;;;7.43;1.77;;;-1.30;99.90;;;;;;6124729;23;20026;-85
2023/03/11 03:45:21;;;;;;;14.00;2.10;;;-0.50;99.90;;;;;;6127446;23;20053;-85
2023/03/11 03:47:52;;;;;;;9.57;1.90;;;-1.40;99.90;;;;;;6126246;23;20018;-86
2023/03/11 03:50:21;;;;;;;10.70;2.10;;;-2.00;99.90;;;;;;6127183;23;20018;-85
2023/03/11 03:53:02;;;;;;;7.00;1.93;;;-1.60;99.90;;;;;;6124070;23;20223;-85
2023/03/11 03:55:43;;;;;;;8.47;1.80;;;-2.00;99.90;;;;;;6126895;23;20018;-85
2023/03/11 04:00:59;;;;;;;8.13;2.00;;;-1.90;99.90;;;;;;6125230;23;20014;-85
2023/03/11 04:03:30;;;;;;;9.43;2.30;;;-1.90;99.90;;;;;;6126741;23;20092;-85
2023/03/11 04:06:19;;;;;;;8.13;2.00;;;-2.30;99.90;;;;;;6126947;23;20018;-85
2023/03/11 04:08:52;;;;;;;6.83;1.70;;;0.10;99.90;;;;;;6124847;23;20022;-85
2023/03/11 04:11:21;;;;;;;7.63;2.07;;;-1.90;99.90;;;;;;6126724;23;20104;-85
2023/03/11 04:13:50;;;;;;;8.67;2.00;;;-2.50;99.90;;;;;;6125123;23;20093;-85
2023/03/11 04:16:21;;;;;;;10.60;1.80;;;-2.40;99.90;;;;;;6125170;23;20093;-85
2023/03/11 04:18:47;;;;;;;7.93;1.80;;;-1.30;99.90;;;;;;6123783;23;20113;-85
2023/03/11 04:21:22;;;;;;;7.97;1.90;;;-2.80;99.90;;;;;;6123063;23;20458;-85
2023/03/11 04:23:53;;;;;;;9.27;2.13;;;-2.70;99.90;;;;;;6125595;23;20053;-85
2023/03/11 04:29:56;;;;;;;10.20;2.17;;;-1.90;99.90;;;;;;6154302;23;20029;-85
2023/03/11 04:32:22;;;;;;;7.90;1.97;;;-2.50;99.90;;;;;;6129875;23;20025;-85
2023/03/11 04:34:51;;;;;;;7.53;1.93;;;-2.60;99.90;;;;;;6153706;23;20020;-86
2023/03/11 04:38:13;;;;;;;7.90;1.97;;;-1.50;99.90;;;;;;6129446;23;20025;-85
2023/03/11 04:40:39;;;;;;;8.00;2.00;;;-3.20;99.90;;;;;;6070786;23;20014;-85
2023/03/11 04:43:05;;;;;;;10.30;2.03;;;-1.40;99.90;;;;;;6115797;23;20002;-84
2023/03/11 04:45:31;;;;;;;5.47;1.57;;;-2.70;99.90;;;;;;6119928;23;20014;-85
2023/03/11 04:47:57;;;;;;;8.30;2.17;;;-1.80;99.90;;;;;;6130015;23;20017;-85
2023/03/11 04:50:37;;;;;;;9.27;1.73;;;-0.90;99.90;;;;;;6146890;23;20017;-85
2023/03/11 04:53:18;;;;;;;8.67;1.87;;;-2.30;99.90;;;;;;6130821;23;20036;-85
2023/03/11 04:55:43;;;;;;;9.93;2.43;;;-1.70;99.90;;;;;;6128594;23;20397;-86
2023/03/11 04:58:12;;;;;;;8.40;2.10;;;-2.90;99.90;;;;;;6155462;23;20024;-85
2023/03/11 05:00:47;;;;;;;5.03;1.70;;;-2.20;99.90;;;;;;6129005;23;20017;-85
2023/03/11 05:03:18;;;;;;;10.13;2.00;;;-3.00;99.90;;;;;;6158999;23;20052;-86
2023/03/11 05:05:44;;;;;;;6.63;1.80;;;-3.40;99.90;;;;;;6140977;23;20022;-85
2023/03/11 05:08:10;;;;;;;9.10;2.00;;;-3.00;99.90;;;;;;6130362;23;20021;-86
2023/03/11 05:10:45;;;;;;;8.97;1.90;;;-3.00;99.90;;;;;;6138771;23;20020;-87
2023/03/11 05:13:12;;;;;;;8.20;2.00;;;-2.00;99.90;;;;;;6143766;23;20032;-86
2023/03/11 05:15:48;;;;;;;7.30;1.90;;;-3.00;99.90;;;;;;6155528;23;20385;-86
2023/03/11 05:18:16;;;;;;;6.63;1.63;;;-2.20;99.90;;;;;;6154826;23;20025;-86
2023/03/11 05:21:08;;;;;;;7.53;2.00;;;-2.80;99.90;;;;;;6154724;23;20049;-86
2023/03/11 05:23:48;;;;;;;9.73;2.63;;;-4.40;99.90;;;;;;6129169;23;20014;-86
2023/03/11 05:26:25;;;;;;;7.13;2.20;;;-1.40;99.90;;;;;;6128025;23;20104;-87
2023/03/11 05:28:51;;;;;;;6.83;1.80;;;-2.90;99.90;;;;;;6129523;23;20017;-86
2023/03/11 05:31:32;;;;;;;9.30;2.00;;;-0.80;99.90;;;;;;6128618;23;20028;-86
2023/03/11 05:34:19;;;;;;;6.97;1.80;;;-3.10;99.90;;;;;;6129139;23;20026;-87
2023/03/11 05:37:37;;;;;;;9.13;1.90;;;-2.70;99.90;;;;;;6129047;23;20018;-86
2023/03/11 05:40:16;;;;;;;8.53;1.90;;;-2.20;99.90;;;;;;6152032;23;20100;-87
2023/03/11 05:45:13;;;;;;;8.10;1.87;;;-2.90;99.90;;;;;;6154287;23;20018;-86
2023/03/11 05:47:41;;;;;;;7.17;1.90;;;-1.70;99.90;;;;;;6128994;23;20131;-87
2023/03/11 05:50:11;;;;;;;9.73;2.00;;;-2.80;99.90;;;;;;6129436;23;20033;-87
2023/03/11 05:52:37;;;;;;;9.47;2.00;;;-3.20;99.90;;;;;;6122272;23;20496;-87
2023/03/11 05:55:03;;;;;;;9.07;1.90;;;-3.30;99.90;;;;;;6127856;23;20045;-87
2023/03/11 05:57:41;;;;;;;9.27;2.07;;;-3.10;99.90;;;;;;6155419;23;20025;-87
2023/03/11 06:00:11;;;;;;;6.40;1.90;;;-2.70;99.90;;;;;;6154828;23;20069;-87
2023/03/11 06:02:55;;;;;;;8.60;1.90;;;-3.10;99.90;;;;;;6129389;23;20068;-87
2023/03/11 06:05:21;;;;;;;;;;;-2.00;99.90;;;;;;6131088;23;20043;-89
2023/03/11 06:08:15;;;;;;;8.90;2.83;;;-2.30;99.90;;;;;;6125114;23;19951;-89
2023/03/11 06:11:03;;;;;;;8.50;1.97;;;-3.10;99.90;;;;;;6130940;23;20041;-89
2023/03/11 06:13:29;;;;;;;10.80;2.30;;;-3.20;99.90;;;;;;6129528;23;20468;-89
2023/03/11 06:15:55;;;;;;;8.83;2.40;;;-3.60;99.90;;;;;;6127782;23;20108;-87
2023/03/11 06:18:21;;;;;;;8.17;1.90;;;-1.70;99.90;;;;;;6157177;23;20017;-88
2023/03/11 06:21:02;;;;;;;6.83;2.00;;;-3.30;99.90;;;;;;6155682;23;20104;-87
2023/03/11 06:23:46;;;;;;;8.57;2.03;;;-3.00;99.90;;;;;;6130885;23;20025;-87
2023/03/11 06:26:39;;;;;;;11.33;3.43;;;-3.10;99.90;;;;;;6157197;23;20060;-87
2023/03/11 06:32:46;;;;;;;9.30;2.10;;;-3.30;99.90;;;;;;6156706;23;20097;-89
2023/03/11 06:35:12;;;;;;;6.07;1.93;;;-3.40;99.90;;;;;;6132670;23;20013;-88
2023/03/11 06:37:38;;;;;;;8.80;2.63;;;-1.50;99.90;;;;;;6149219;23;20072;-86
2023/03/11 06:40:38;;;;;;;9.83;2.10;;;-3.00;99.90;;;;;;6139011;23;20320;-87
2023/03/11 06:43:34;;;;;;;6.93;2.00;;;-3.40;99.90;;;;;;6158002;23;20049;-87
2023/03/11 06:46:00;;;;;;;9.20;2.27;;;-3.40;99.90;;;;;;6126602;23;20026;-87
2023/03/11 06:48:51;;;;;;;9.07;2.20;;;-2.80;99.90;;;;;;6101058;23;20041;-88
2023/03/11 06:52:07;;;;;;;7.77;2.10;;;-2.80;99.90;;;;;;6122276;23;20455;-88
2023/03/11 06:54:45;;;;;;;9.10;2.00;;;-3.80;99.90;;;;;;6101234;23;20022;-95
2023/03/11 06:57:11;;;;;;;8.17;2.10;;;-1.80;99.90;;;;;;6136491;23;20378;-94
2023/03/11 06:59:56;;;;;;;8.23;2.20;;;-2.10;99.90;;;;;;6135026;23;20465;-94
2023/03/11 07:02:28;;;;;;;7.17;2.00;;;-2.60;99.90;;;;;;6107462;23;20144;-94
2023/03/11 07:04:54;;;;;;;9.80;2.17;;;-1.10;99.90;;;;;;6106141;23;20458;-93
2023/03/11 07:07:20;;;;;;;9.93;2.83;;;-0.90;99.90;;;;;;6105823;23;20022;-95
2023/03/11 07:09:45;;;;;;;7.63;2.20;;;-2.80;99.90;;;;;;6108449;23;20022;-94
2023/03/11 07:12:33;;;;;;;8.87;2.30;;;-2.70;99.90;;;;;;6107759;23;20057;-94
2023/03/11 07:14:59;;;;;;;10.10;2.40;;;-2.20;99.90;;;;;;6133760;23;20048;-96
2023/03/11 07:17:25;;;;;;;11.27;2.37;;;-2.50;99.90;;;;;;6109685;23;20435;-94
2023/03/11 07:20:10;;;;;;;8.20;2.13;;;-2.60;99.90;;;;;;6111586;23;20014;-93
2023/03/11 07:23:21;;;;;;;9.37;2.20;;;-2.20;99.90;;;;;;6107803;23;20025;-95
2023/03/11 07:26:23;;;;;;;9.77;2.20;;;-2.60;99.90;;;;;;5992215;23;20022;-95
2023/03/11 07:29:09;;;;;;;6.65;2.00;;;-2.70;99.90;;;;;;6014505;23;20020;-94
2023/03/11 07:34:24;;;;;;;9.27;2.43;;;0.30;99.90;;;;;;6098821;23;20022;-94
2023/03/11 07:36:53;;;;;;;10.83;2.53;;;-1.00;99.90;;;;;;6106493;23;20026;-93
2023/03/11 07:39:22;;;;;;;9.00;2.13;;;-1.90;99.90;;;;;;6108284;23;20020;-93
2023/03/11 07:41:54;;;;;;;10.13;2.10;;;-1.50;99.90;;;;;;6132319;23;20088;-94
2023/03/11 07:44:22;;;;;;;9.37;2.27;;;-1.50;99.90;;;;;;6140498;23;20081;-94
2023/03/11 07:47:02;;;;;;;10.73;2.20;;;-0.20;99.90;;;;;;6152763;23;20010;-92
2023/03/11 07:49:28;;;;;;;8.30;2.20;;;-0.70;99.90;;;;;;6152721;23;20029;-94
2023/03/11 07:52:02;;;;;;;9.10;2.40;;;-1.30;99.90;;;;;;6125405;23;20014;-94
2023/03/11 07:54:40;;;;;;;13.53;2.50;;;-1.60;99.90;;;;;;6105013;23;20017;-90
2023/03/11 07:57:07;;;;;;;7.90;2.30;;;-1.80;99.90;;;;;;6130827;23;20025;-91
2023/03/11 07:59:52;;;;;;;10.37;2.40;;;0.30;99.90;;;;;;6107448;23;20014;-87
2023/03/11 08:02:30;;;;;;;7.90;2.20;;;-1.30;99.90;;;;;;6129084;23;20040;-91
2023/03/11 08:05:22;;;;;;;9.13;2.47;;;-1.50;99.90;;;;;;6156346;23;20454;-92
2023/03/11 08:07:51;;;;;;;9.77;2.57;;;-1.30;99.90;;;;;;6170014;23;20022;-93
2023/03/11 08:10:24;;;;;;;8.67;2.47;;;-0.70;99.90;;;;;;6164886;23;20018;-94
2023/03/11 08:13:38;;;;;;;9.37;2.87;;;-1.20;99.90;;;;;;6157899;23;20017;-96
2023/03/11 08:16:05;;;;;;;11.70;2.43;;;-0.10;99.90;;;;;;6152098;23;20253;-96
2023/03/11 08:29:37;;;;;;;9.50;2.20;;;-0.80;99.90;;;;;;6155393;23;20032;-95
2023/03/11 08:32:03;;;;;;;6.40;1.90;;;-1.40;99.90;;;;;;6134901;23;20021;-95
2023/03/11 08:35:28;;;;;;;;;;;;;;;;;;;;;
2023/03/11 08:38:26;;;;;;;11.25;2.40;;;-0.50;99.90;;;;;;6159914;23;20022;-96
2023/03/11 08:41:00;;;;;;;9.77;2.60;;;-0.20;99.90;;;;;;6133692;23;20028;-96
2023/03/11 08:43:57;;;;;;;8.77;2.45;;;0.30;99.90;;;;;;6158297;23;20033;-94
2023/03/11 08:46:57;;;;;;;7.60;2.20;;;2.00;99.90;;;;;;6132396;23;20060;-93
2023/03/11 08:49:38;;;;;;;11.00;2.50;;;0.20;99.90;;;;;;6134206;23;20064;-94
2023/03/11 08:52:10;;;;;;;;;;;0.60;99.90;;;;;;6135304;23;20080;-95
2023/03/11 08:55:23;;;;;;;8.63;2.10;;;1.30;99.90;;;;;;6131606;23;19956;-93
2023/03/11 09:01:03;;;;;;;10.10;2.40;;;0.70;99.90;;;;;;6114289;23;20018;-92
2023/03/11 09:18:26;;;;;;;10.40;2.50;;;0.50;99.90;;;;;;6124228;23;20033;-91
2023/03/11 09:21:10;;;;;;;10.97;2.20;;;-0.30;99.90;;;;;;6128351;23;20042;-90
2023/03/11 09:23:48;;;;;;;7.70;2.10;;;1.60;99.90;;;;;;6123051;23;20029;-90
2023/03/11 09:34:28;;;;;;;8.87;2.17;;;0.90;99.90;;;;;;6114133;23;20532;-92
2023/03/11 09:38:00;;;;;;;9.17;2.77;;;0.90;99.90;;;;;;6149781;23;20052;-92
2023/03/11 09:41:22;;;;;;;11.37;2.43;;;0.30;99.90;;;;;;6131227;23;20018;-92
2023/03/11 09:52:00;;;;;;;10.07;2.50;;;1.70;99.90;;;;;;6069821;23;20330;-93
2023/03/11 09:54:29;;;;;;;9.47;2.30;;;2.20;99.90;;;;;;6127152;23;20458;-92
2023/03/11 09:57:38;;;;;;;6.87;1.97;;;1.10;99.90;;;;;;6105326;23;20060;-93
2023/03/11 10:03:38;;;;;;;8.93;2.28;;;1.60;99.90;;;;;;6063063;23;20085;-95
2023/03/11 10:06:38;;;;;;;10.07;2.20;;;0.60;99.90;;;;;;6082775;23;20088;-93
2023/03/11 10:09:41;;;;;;;9.67;2.17;;;2.00;99.90;;;;;;6015824;23;20074;-92
2023/03/11 10:12:36;;;;;;;9.53;2.37;;;2.50;99.90;;;;;;6022638;23;20019;-93
2023/03/11 10:15:04;;;;;;;;;;;2.10;99.90;;;;;;6043026;23;20069;-92
2023/03/11 10:18:07;;;;;;;8.97;2.33;;;2.10;99.90;;;;;;6013730;23;20350;-91
2023/03/11 10:27:50;;;;;;;8.60;2.50;;;2.80;99.90;;;;;;6039624;23;20054;-87
2023/03/11 10:30:38;;;;;;;8.57;2.30;;;2.10;99.90;;;;;;6040190;23;20033;-87
2023/03/11 10:33:13;;;;;;;9.90;2.57;;;2.60;99.90;;;;;;6041032;23;20046;-87
2023/03/11 10:35:43;;;;;;;6.90;2.10;;;2.80;99.90;;;;;;6122327;23;20021;-88
2023/03/11 10:38:31;;;;;;;8.03;2.73;;;3.10;99.90;;;;;;6126679;23;20093;-88
2023/03/11 10:41:03;;;;;;;11.20;2.67;;;3.10;99.90;;;;;;6124343;23;20010;-87
2023/03/11 10:43:52;;;;;;;7.23;2.20;;;4.70;99.90;;;;;;6124773;23;20033;-86
2023/03/11 10:46:26;;;;;;;8.43;2.20;;;3.80;99.90;;;;;;6140322;23;20021;-86
2023/03/11 10:48:58;;;;;;;7.97;2.10;;;3.50;99.90;;;;;;6150153;23;20049;-85
2023/03/11 10:51:33;;;;;;;7.90;2.00;;;3.50;99.90;;;;;;6127576;23;20053;-84
2023/03/11 10:54:01;;;;;;;10.80;2.37;;;2.30;99.90;;;;;;6126815;23;20022;-88
2023/03/11 10:56:54;;;;;;;8.97;2.50;;;3.90;99.90;;;;;;6124271;23;20018;-85
2023/03/11 10:59:32;;;;;;;8.73;2.17;;;3.90;99.90;;;;;;6126948;23;20076;-84
2023/03/11 11:02:24;;;;;;;8.17;2.20;;;3.00;99.90;;;;;;6124461;23;20022;-84
2023/03/11 11:14:26;;;;;;;9.27;2.10;;;4.30;99.90;;;;;;6135309;23;20030;-88
2023/03/11 11:28:23;;;;;;;7.47;1.97;;;4.40;99.90;;;;;;6077988;23;20040;-92
2023/03/11 11:31:02;;;;;;;9.43;2.10;;;5.50;99.90;;;;;;6125804;23;20104;-88
2023/03/11 11:34:01;;;;;;;8.15;2.60;;;5.90;99.90;;;;;;6124503;23;20104;-89
2023/03/11 11:39:31;;;;;;;7.43;2.00;;;6.40;99.90;;;;;;6067147;23;20022;-88
2023/03/11 11:41:57;;;;;;;10.23;2.20;;;6.00;99.90;;;;;;6069797;23;20037;-88
2023/03/11 11:44:33;;;;;;;6.90;1.70;;;4.70;99.90;;;;;;6104098;23;20041;-90
2023/03/11 11:47:14;;;;;;;7.10;2.03;;;5.10;99.90;;;;;;6158592;23;20021;-90
2023/03/11 11:49:59;;;;;;;9.13;2.00;;;6.80;99.90;;;;;;6157865;23;20754;-89
2023/03/11 11:52:36;;;;;;;6.07;1.60;;;5.10;99.90;;;;;;6131998;23;20132;-89
2023/03/11 11:55:19;;;;;;;6.63;1.60;;;6.80;99.90;;;;;;6131611;23;20032;-89
2023/03/11 11:57:55;;;;;;;7.13;1.50;;;5.10;99.90;;;;;;6157650;23;20025;-90
2023/03/11 12:01:04;;;;;;;6.17;1.57;;;6.90;99.90;;;;;;6160303;23;20014;-89
2023/03/11 12:04:11;;;;;;;9.07;1.73;;;4.80;99.90;;;;;;6155220;23;20018;-91
2023/03/11 12:06:41;;;;;;;6.47;1.50;;;4.10;99.90;;;;;;6155138;23;20080;-91
2023/03/11 12:10:07;;;;;;;6.97;1.60;;;4.50;99.90;;;;;;6156033;23;20441;-90
2023/03/11 12:13:18;;;;;;;;;;;4.50;99.90;;;;;;6128108;23;20057;-90
2023/03/11 12:19:52;;;;;;;6.00;1.50;;;5.10;99.90;;;;;;6123298;23;20354;-89
2023/03/11 12:22:49;;;;;;;9.50;1.90;;;6.70;99.90;;;;;;6129111;23;20033;-90
2023/03/11 12:29:27;;;;;;;6.70;1.50;;;5.20;99.90;;;;;;6156759;23;20033;-93
2023/03/11 12:32:38;;;;;;;4.93;1.40;;;4.50;99.90;;;;;;6115458;23;20010;-92
2023/03/11 12:56:16;;;;;;;;;;;;;;;;;;;;;
2023/03/11 12:59:56;;;;;;;4.90;1.30;;;5.60;99.90;;;;;;6064558;23;20043;-90
2023/03/11 13:02:59;;;;;;;5.35;1.30;;;5.70;99.90;;;;;;6040256;23;20023;-90
2023/03/11 13:09:45;;;;;;;5.23;1.40;;;6.20;99.90;;;;;;5981863;24;20024;-92
2023/03/11 13:12:46;;;;;;;8.97;1.57;;;5.70;99.90;;;;;;5981545;24;20068;-91
2023/03/11 13:15:41;;;;;;;3.83;1.30;;;5.90;99.90;;;;;;5936336;23;20021;-92
2023/03/11 13:25:02;;;;;;;6.97;1.50;;;6.30;99.90;;;;;;6153191;23;20083;-91
2023/03/11 15:56:32;;;;;;;11.27;4.63;;;5.00;99.90;;;;;;6010147;23;20477;-91
2023/03/11 15:59:24;;;;;;;6.27;1.80;;;5.80;99.90;;;;;;6007676;23;20076;-92
2023/03/11 16:01:57;;;;;;;19.97;10.60;;;4.20;99.90;;;;;;5984361;23;20056;-92
2023/03/11 16:04:31;;;;;;;13.87;5.10;;;4.20;99.90;;;;;;6007909;23;20068;-93
2023/03/11 16:07:06;;;;;;;11.37;4.43;;;3.40;99.90;;;;;;6067773;23;20020;-93
2023/03/11 16:09:41;;;;;;;12.43;6.10;;;5.60;99.90;;;;;;6070837;23;20018;-91
2023/03/11 16:12:29;;;;;;;12.53;5.13;;;3.50;99.90;;;;;;6097781;23;20599;-93
2023/03/11 16:15:35;;;;;;;7.93;2.73;;;3.80;99.90;;;;;;6078150;23;20017;-93
2023/03/11 16:18:16;;;;;;;8.03;2.53;;;4.40;99.90;;;;;;6088448;23;20011;-93
2023/03/11 16:20:55;;;;;;;11.63;3.83;;;5.90;99.90;;;;;;6095663;23;20003;-93
2023/03/11 16:23:26;;;;;;;10.63;2.70;;;5.40;99.90;;;;;;6072438;23;20025;-90
2023/03/11 16:26:01;;;;;;;12.20;3.90;;;5.70;99.90;;;;;;6071929;23;20073;-90
2023/03/11 16:28:29;;;;;;;13.67;2.93;;;6.60;99.90;;;;;;6095859;23;20026;-92
2023/03/11 16:30:55;;;;;;;9.43;3.00;;;4.60;99.90;;;;;;6098565;23;20088;-90
2023/03/11 16:33:21;;;;;;;13.00;3.20;;;5.30;99.90;;;;;;6097259;23;20022;-91
2023/03/11 16:39:15;;;;;;;11.67;3.67;;;4.00;99.90;;;;;;6123729;23;20006;-93
2023/03/11 16:45:53;;;;;;;16.20;6.43;;;5.40;99.90;;;;;;6074090;23;20037;-93
2023/03/11 16:53:30;;;;;;;9.47;2.80;;;4.20;99.90;;;;;;6107749;23;20069;-95
2023/03/11 16:56:05;;;;;;;9.33;3.13;;;5.40;99.90;;;;;;6137268;23;20021;-92
2023/03/11 16:58:55;;;;;;;6.17;2.20;;;3.90;99.90;;;;;;6139108;23;20430;-94
2023/03/11 17:04:06;;;;;;;7.20;2.37;;;3.70;99.90;;;;;;6127888;23;20054;-92
2023/03/11 17:06:32;;;;;;;6.97;2.28;;;3.40;99.90;;;;;;6134192;23;20022;-92
2023/03/11 17:09:16;;;;;;;21.20;9.67;;;3.60;99.90;;;;;;6129953;23;20331;-91
2023/03/11 17:11:42;;;;;;;;;;;3.20;99.90;;;;;;6126921;23;20025;-92
2023/03/11 17:19:18;;;;;;;20.17;8.07;;;3.20;99.90;;;;;;6133123;23;20030;-92
2023/03/11 17:22:35;;;;;;;9.63;2.70;;;2.70;99.90;;;;;;6125825;23;20030;-91
2023/03/11 17:25:01;;;;;;;29.27;11.10;;;2.90;99.90;;;;;;6124398;23;20101;-92
2023/03/11 17:27:37;;;;;;;58.43;21.57;;;2.90;99.90;;;;;;6131471;23;20449;-93
2023/03/11 17:30:24;;;;;;;53.57;21.67;;;2.50;99.90;;;;;;6154706;23;20096;-94
2023/03/11 17:32:49;;;;;;;91.77;33.07;;;2.30;99.90;;;;;;6157519;23;20014;-93
2023/03/11 17:35:15;;;;;;;14.57;4.53;;;2.60;99.90;;;;;;6157676;23;20016;-92
2023/03/11 17:37:50;;;;;;;46.57;17.20;;;2.90;99.90;;;;;;6129370;23;20468;-93
2023/03/11 17:40:19;;;;;;;48.03;19.87;;;3.70;99.90;;;;;;6133897;23;20022;-95
2023/03/11 17:43:15;;;;;;;15.23;8.57;;;2.70;99.90;;;;;;6156252;23;20025;-92
2023/03/11 17:45:54;;;;;;;9.63;3.07;;;2.70;99.90;;;;;;6106211;23;20018;-94
2023/03/11 17:48:38;;;;;;;9.90;4.27;;;2.60;99.90;;;;;;6101176;23;20022;-90
2023/03/11 17:51:09;;;;;;;11.67;4.10;;;4.00;99.90;;;;;;6123046;23;20006;-87
2023/03/11 17:59:01;;;;;;;25.47;12.27;;;2.30;99.90;;;;;;6154153;23;20450;-84
2023/03/11 18:01:28;;;;;;;9.05;2.30;;;2.80;99.90;;;;;;6155493;23;20017;-84
2023/03/11 18:03:54;;;;;;;7.87;2.40;;;2.70;99.90;;;;;;6155246;23;20049;-84
2023/03/11 18:06:21;;;;;;;6.83;2.27;;;2.70;99.90;;;;;;6130660;23;20072;-84
2023/03/11 18:08:47;;;;;;;8.73;3.37;;;3.60;99.90;;;;;;6129394;23;20327;-84
2023/03/11 18:11:31;;;;;;;6.20;1.70;;;3.30;99.90;;;;;;6129509;23;20457;-84
2023/03/11 18:14:00;;;;;;;12.13;5.53;;;4.30;99.90;;;;;;6153465;23;20022;-83
2023/03/11 18:16:41;;;;;;;9.47;3.03;;;2.20;99.90;;;;;;6155652;23;20029;-84
2023/03/11 18:19:22;;;;;;;11.07;3.47;;;2.20;99.90;;;;;;6155831;23;20017;-84
2023/03/11 18:21:50;;;;;;;11.10;4.10;;;2.40;99.90;;;;;;6129281;23;20017;-84
2023/03/11 18:24:38;;;;;;;8.00;2.10;;;2.70;99.90;;;;;;6157019;23;20024;-84
2023/03/11 18:27:24;;;;;;;9.27;3.60;;;3.90;99.90;;;;;;6136344;23;20024;-84
2023/03/11 18:30:07;;;;;;;9.67;4.77;;;4.60;99.90;;;;;;6135197;23;20049;-85
2023/03/11 18:32:33;;;;;;;7.83;2.60;;;2.50;99.90;;;;;;6131068;23;20017;-85
2023/03/11 18:35:16;;;;;;;8.43;2.83;;;3.70;99.90;;;;;;6139813;23;20033;-84
2023/03/11 18:37:51;;;;;;;8.50;2.83;;;3.40;99.90;;;;;;6131565;23;20512;-84
2023/03/11 18:40:35;;;;;;;9.33;3.00;;;4.70;99.90;;;;;;6130603;23;20020;-84
2023/03/11 18:43:00;;;;;;;7.28;2.60;;;3.40;99.90;;;;;;6130902;23;20031;-85
2023/03/11 18:45:37;;;;;;;11.87;4.20;;;2.10;99.90;;;;;;6137250;23;20041;-84
2023/03/11 18:48:09;;;;;;;9.50;3.80;;;1.80;99.90;;;;;;6126856;23;20049;-83
2023/03/11 18:50:59;;;;;;;11.17;3.10;;;2.30;99.90;;;;;;6121204;23;20022;-83
2023/03/11 18:53:59;;;;;;;9.83;4.83;;;2.70;99.90;;;;;;6100019;23;20030;-84
2023/03/11 18:56:25;;;;;;;8.80;3.10;;;2.70;99.90;;;;;;6101714;23;20017;-85
2023/03/11 18:58:54;;;;;;;8.90;2.83;;;3.80;99.90;;;;;;6126333;23;20014;-84
2023/03/11 19:01:20;;;;;;;7.07;2.00;;;2.10;99.90;;;;;;6115647;23;20029;-84
2023/03/11 19:03:59;;;;;;;9.07;2.30;;;2.00;99.90;;;;;;6093298;23;20023;-84
2023/03/11 19:06:27;;;;;;;9.60;2.50;;;1.90;99.90;;;;;;6069958;23;20014;-83
2023/03/11 19:08:56;;;;;;;8.70;2.40;;;1.90;99.90;;;;;;6092747;23;20344;-83
2023/03/11 19:11:32;;;;;;;8.70;2.30;;;2.40;99.90;;;;;;6070460;23;20042;-83
2023/03/11 19:13:58;;;;;;;8.20;2.30;;;2.30;99.90;;;;;;6094067;23;20060;-83
2023/03/11 19:16:32;;;;;;;7.10;2.27;;;2.10;99.90;;;;;;6070931;23;20018;-83
2023/03/11 19:19:09;;;;;;;11.23;3.03;;;1.90;99.90;;;;;;6069849;23;20029;-83
2023/03/11 19:21:35;;;;;;;11.23;2.70;;;2.70;99.90;;;;;;6069070;23;20015;-84
2023/03/11 19:24:00;;;;;;;7.40;2.23;;;1.60;99.90;;;;;;6070598;23;20026;-83
2023/03/11 19:26:35;;;;;;;8.30;2.40;;;2.10;99.90;;;;;;6069971;23;20390;-87
2023/03/11 19:40:42;;;;;;;7.50;2.10;;;1.40;99.90;;;;;;6134390;23;20105;-84